sensor_id;sensor_type;location;lat;lon;timestamp;temperature;humidity
20231;DHT22;10274;49.022;9.338;2023-02-04T00:02:24;8.20;97.40
20231;DHT22;10274;49.022;9.338;2023-02-04T00:04:51;8.20;99.30
20231;DHT22;10274;49.022;9.338;2023-02-04T00:07:18;8.20;99.20
20231;DHT22;10274;49.022;9.338;2023-02-04T00:09:44;8.20;99.90
20231;DHT22;10274;49.022;9.338;2023-02-04T00:12:13;8.20;99.90
20231;DHT22;10274;49.022;9.338;2023-02-04T00:14:40;8.10;99.90
20231;DHT22;10274;49.022;9.338;2023-02-04T00:17:07;8.00;99.90
20231;DHT22;10274;49.022;9.338;2023-02-04T00:19:35;8.00;99.90
20231;DHT22;10274;49.022;9.338;2023-02-04T00:22:01;8.00;99.90
20231;DHT22;10274;49.022;9.338;2023-02-04T00:24:29;7.90;99.90
20231;DHT22;10274;49.022;9.338;2023-02-04T00:26:56;7.90;99.90
20231;DHT22;10274;49.022;9.338;2023-02-04T00:29:24;7.90;99.90
20231;DHT22;10274;49.022;9.338;2023-02-04T00:31:50;7.90;99.90
20231;DHT22;10274;49.022;9.338;2023-02-04T00:34:17;7.90;99.90
20231;DHT22;10274;49.022;9.338;2023-02-04T00:36:44;7.80;99.90
20231;DHT22;10274;49.022;9.338;2023-02-04T00:39:11;7.70;99.90
20231;DHT22;10274;49.022;9.338;2023-02-04T00:41:38;7.80;99.90
20231;DHT22;10274;49.022;9.338;2023-02-04T00:44:04;7.80;99.90
20231;DHT22;10274;49.022;9.338;2023-02-04T00:46:32;7.80;99.90
20231;DHT22;10274;49.022;9.338;2023-02-04T00:48:59;7.80;99.90
20231;DHT22;10274;49.022;9.338;2023-02-04T00:51:26;7.80;99.90
20231;DHT22;10274;49.022;9.338;2023-02-04T00:53:52;7.70;99.90
20231;DHT22;10274;49.022;9.338;2023-02-04T00:56:19;7.70;99.90
20231;DHT22;10274;49.022;9.338;2023-02-04T00:58:46;7.70;99.90
20231;DHT22;10274;49.022;9.338;2023-02-04T01:01:12;7.60;99.90
20231;DHT22;10274;49.022;9.338;2023-02-04T01:03:40;7.60;99.90
20231;DHT22;10274;49.022;9.338;2023-02-04T01:06:07;7.60;99.90
20231;DHT22;10274;49.022;9.338;2023-02-04T01:08:33;7.50;99.90
20231;DHT22;10274;49.022;9.338;2023-02-04T01:11:00;7.60;99.90
20231;DHT22;10274;49.022;9.338;2023-02-04T01:13:27;7.60;99.90
20231;DHT22;10274;49.022;9.338;2023-02-04T01:15:53;7.50;99.90
20231;DHT22;10274;49.022;9.338;2023-02-04T01:18:20;7.50;99.90
20231;DHT22;10274;49.022;9.338;2023-02-04T01:20:48;7.50;99.90
20231;DHT22;10274;49.022;9.338;2023-02-04T01:23:15;7.60;99.90
20231;DHT22;10274;49.022;9.338;2023-02-04T01:25:41;7.60;99.90
20231;DHT22;10274;49.022;9.338;2023-02-04T01:28:08;7.60;99.90
20231;DHT22;10274;49.022;9.338;2023-02-04T01:30:36;7.60;99.90
20231;DHT22;10274;49.022;9.338;2023-02-04T01:33:02;7.50;99.90
20231;DHT22;10274;49.022;9.338;2023-02-04T01:35:29;7.50;99.90
20231;DHT22;10274;49.022;9.338;2023-02-04T01:37:57;7.60;99.90
20231;DHT22;10274;49.022;9.338;2023-02-04T01:40:24;7.50;99.90
20231;DHT22;10274;49.022;9.338;2023-02-04T01:42:51;7.50;99.90
20231;DHT22;10274;49.022;9.338;2023-02-04T01:45:18;7.50;99.90
20231;DHT22;10274;49.022;9.338;2023-02-04T01:47:45;7.50;99.90
20231;DHT22;10274;49.022;9.338;2023-02-04T01:50:13;7.50;99.90
20231;DHT22;10274;49.022;9.338;2023-02-04T01:52:41;7.50;99.90
20231;DHT22;10274;49.022;9.338;2023-02-04T01:55:13;7.50;99.90
20231;DHT22;10274;49.022;9.338;2023-02-04T01:57:41;7.50;99.90
20231;DHT22;10274;49.022;9.338;2023-02-04T02:00:14;7.50;99.90
20231;DHT22;10274;49.022;9.338;2023-02-04T02:02:44;7.50;99.90
20231;DHT22;10274;49.022;9.338;2023-02-04T02:05:13;7.60;99.90
20231;DHT22;10274;49.022;9.338;2023-02-04T02:07:41;7.50;99.90
20231;DHT22;10274;49.022;9.338;2023-02-04T02:10:10;7.50;99.90
20231;DHT22;10274;49.022;9.338;2023-02-04T02:12:40;7.50;99.90
20231;DHT22;10274;49.022;9.338;2023-02-04T02:15:08;7.50;99.90
20231;DHT22;10274;49.022;9.338;2023-02-04T02:17:35;7.50;99.90
20231;DHT22;10274;49.022;9.338;2023-02-04T02:20:04;7.50;99.90
20231;DHT22;10274;49.022;9.338;2023-02-04T02:22:34;7.50;99.90
20231;DHT22;10274;49.022;9.338;2023-02-04T02:25:08;7.50;99.90
20231;DHT22;10274;49.022;9.338;2023-02-04T02:27:35;7.50;99.90
20231;DHT22;10274;49.022;9.338;2023-02-04T02:30:02;7.50;99.90
20231;DHT22;10274;49.022;9.338;2023-02-04T02:32:29;7.50;99.90
20231;DHT22;10274;49.022;9.338;2023-02-04T02:34:56;7.50;99.90
20231;DHT22;10274;49.022;9.338;2023-02-04T02:37:23;7.50;99.90
20231;DHT22;10274;49.022;9.338;2023-02-04T02:39:50;7.50;99.90
20231;DHT22;10274;49.022;9.338;2023-02-04T02:42:19;7.40;99.90
20231;DHT22;10274;49.022;9.338;2023-02-04T02:44:47;7.40;99.90
20231;DHT22;10274;49.022;9.338;2023-02-04T02:47:15;7.40;99.90
20231;DHT22;10274;49.022;9.338;2023-02-04T02:49:43;7.40;99.90
20231;DHT22;10274;49.022;9.338;2023-02-04T02:52:10;7.30;99.90
20231;DHT22;10274;49.022;9.338;2023-02-04T02:54:38;7.30;99.90
20231;DHT22;10274;49.022;9.338;2023-02-04T02:57:11;7.20;99.90
20231;DHT22;10274;49.022;9.338;2023-02-04T02:59:40;7.20;99.90
20231;DHT22;10274;49.022;9.338;2023-02-04T03:02:07;7.30;99.90
20231;DHT22;10274;49.022;9.338;2023-02-04T03:04:37;7.30;99.90
20231;DHT22;10274;49.022;9.338;2023-02-04T03:07:06;7.30;99.90
20231;DHT22;10274;49.022;9.338;2023-02-04T03:09:33;7.30;99.90
20231;DHT22;10274;49.022;9.338;2023-02-04T03:12:00;6.70;99.90
20231;DHT22;10274;49.022;9.338;2023-02-04T03:14:27;7.30;99.90
20231;DHT22;10274;49.022;9.338;2023-02-04T03:16:56;7.20;99.90
20231;DHT22;10274;49.022;9.338;2023-02-04T03:19:24;7.20;99.90
20231;DHT22;10274;49.022;9.338;2023-02-04T03:21:52;7.20;99.90
20231;DHT22;10274;49.022;9.338;2023-02-04T03:24:19;7.20;99.90
20231;DHT22;10274;49.022;9.338;2023-02-04T03:26:46;7.10;99.90
20231;DHT22;10274;49.022;9.338;2023-02-04T03:29:13;7.20;99.90
20231;DHT22;10274;49.022;9.338;2023-02-04T03:31:39;7.20;99.90
20231;DHT22;10274;49.022;9.338;2023-02-04T03:34:07;7.10;99.90
20231;DHT22;10274;49.022;9.338;2023-02-04T03:36:34;7.10;99.90
20231;DHT22;10274;49.022;9.338;2023-02-04T03:39:02;7.10;99.90
20231;DHT22;10274;49.022;9.338;2023-02-04T03:41:29;7.10;99.90
20231;DHT22;10274;49.022;9.338;2023-02-04T03:43:56;7.10;99.90
20231;DHT22;10274;49.022;9.338;2023-02-04T03:46:22;7.10;99.90
20231;DHT22;10274;49.022;9.338;2023-02-04T03:48:50;7.10;99.90
20231;DHT22;10274;49.022;9.338;2023-02-04T03:51:18;7.10;99.90
20231;DHT22;10274;49.022;9.338;2023-02-04T03:53:45;7.00;99.90
20231;DHT22;10274;49.022;9.338;2023-02-04T03:56:11;7.00;99.90
20231;DHT22;10274;49.022;9.338;2023-02-04T03:58:38;7.00;99.90
20231;DHT22;10274;49.022;9.338;2023-02-04T04:01:05;7.00;99.90
20231;DHT22;10274;49.022;9.338;2023-02-04T04:03:31;7.00;99.90
20231;DHT22;10274;49.022;9.338;2023-02-04T04:05:58;7.00;99.90
20231;DHT22;10274;49.022;9.338;2023-02-04T04:08:26;7.00;99.90
20231;DHT22;10274;49.022;9.338;2023-02-04T04:10:53;7.00;99.90
20231;DHT22;10274;49.022;9.338;2023-02-04T04:13:19;7.00;99.90
20231;DHT22;10274;49.022;9.338;2023-02-04T04:15:46;6.90;99.90
20231;DHT22;10274;49.022;9.338;2023-02-04T04:18:12;6.90;99.90
20231;DHT22;10274;49.022;9.338;2023-02-04T04:20:39;6.80;99.90
20231;DHT22;10274;49.022;9.338;2023-02-04T04:23:06;6.80;99.90
20231;DHT22;10274;49.022;9.338;2023-02-04T04:25:34;6.80;99.90
20231;DHT22;10274;49.022;9.338;2023-02-04T04:28:00;6.70;99.90
20231;DHT22;10274;49.022;9.338;2023-02-04T04:30:27;6.50;99.90
20231;DHT22;10274;49.022;9.338;2023-02-04T04:32:54;6.40;99.90
20231;DHT22;10274;49.022;9.338;2023-02-04T04:35:20;6.40;99.90
20231;DHT22;10274;49.022;9.338;2023-02-04T04:37:47;6.40;99.90
20231;DHT22;10274;49.022;9.338;2023-02-04T04:40:14;6.30;99.90
20231;DHT22;10274;49.022;9.338;2023-02-04T04:42:42;6.20;99.90
20231;DHT22;10274;49.022;9.338;2023-02-04T04:45:09;6.00;99.90
20231;DHT22;10274;49.022;9.338;2023-02-04T04:47:36;5.90;99.90
20231;DHT22;10274;49.022;9.338;2023-02-04T04:50:03;5.90;99.90
20231;DHT22;10274;49.022;9.338;2023-02-04T04:52:30;5.80;99.90
20231;DHT22;10274;49.022;9.338;2023-02-04T04:54:57;5.90;99.90
20231;DHT22;10274;49.022;9.338;2023-02-04T04:57:23;6.00;99.90
20231;DHT22;10274;49.022;9.338;2023-02-04T04:59:51;6.00;99.90
20231;DHT22;10274;49.022;9.338;2023-02-04T05:02:18;6.10;99.90
20231;DHT22;10274;49.022;9.338;2023-02-04T05:04:45;6.20;99.90
20231;DHT22;10274;49.022;9.338;2023-02-04T05:07:11;6.00;99.90
20231;DHT22;10274;49.022;9.338;2023-02-04T05:09:38;5.80;99.90
20231;DHT22;10274;49.022;9.338;2023-02-04T05:12:05;5.30;99.90
20231;DHT22;10274;49.022;9.338;2023-02-04T05:14:31;5.20;99.90
20231;DHT22;10274;49.022;9.338;2023-02-04T05:16:59;5.20;99.90
20231;DHT22;10274;49.022;9.338;2023-02-04T05:19:26;5.00;99.90
20231;DHT22;10274;49.022;9.338;2023-02-04T05:21:53;5.10;99.90
20231;DHT22;10274;49.022;9.338;2023-02-04T05:24:19;5.20;99.90
20231;DHT22;10274;49.022;9.338;2023-02-04T05:26:46;5.30;99.90
20231;DHT22;10274;49.022;9.338;2023-02-04T05:29:13;5.30;99.90
20231;DHT22;10274;49.022;9.338;2023-02-04T05:31:39;5.40;99.90
20231;DHT22;10274;49.022;9.338;2023-02-04T05:34:07;5.50;99.90
20231;DHT22;10274;49.022;9.338;2023-02-04T05:36:34;5.60;99.90
20231;DHT22;10274;49.022;9.338;2023-02-04T05:39:01;5.60;99.90
20231;DHT22;10274;49.022;9.338;2023-02-04T05:41:27;5.40;99.90
20231;DHT22;10274;49.022;9.338;2023-02-04T05:43:54;5.20;99.90
20231;DHT22;10274;49.022;9.338;2023-02-04T05:46:21;5.20;99.90
20231;DHT22;10274;49.022;9.338;2023-02-04T05:48:47;5.00;99.90
20231;DHT22;10274;49.022;9.338;2023-02-04T05:51:15;5.00;99.90
20231;DHT22;10274;49.022;9.338;2023-02-04T05:53:42;4.90;99.90
20231;DHT22;10274;49.022;9.338;2023-02-04T05:56:09;4.90;99.90
20231;DHT22;10274;49.022;9.338;2023-02-04T05:58:35;5.10;99.90
20231;DHT22;10274;49.022;9.338;2023-02-04T06:01:02;5.10;99.90
20231;DHT22;10274;49.022;9.338;2023-02-04T06:03:30;5.10;99.90
20231;DHT22;10274;49.022;9.338;2023-02-04T06:05:57;5.10;99.90
20231;DHT22;10274;49.022;9.338;2023-02-04T06:08:25;5.00;99.90
20231;DHT22;10274;49.022;9.338;2023-02-04T06:10:52;4.80;99.90
20231;DHT22;10274;49.022;9.338;2023-02-04T06:13:18;4.60;99.90
20231;DHT22;10274;49.022;9.338;2023-02-04T06:15:45;4.50;99.90
20231;DHT22;10274;49.022;9.338;2023-02-04T06:18:11;4.50;99.90
20231;DHT22;10274;49.022;9.338;2023-02-04T06:20:38;4.40;99.90
20231;DHT22;10274;49.022;9.338;2023-02-04T06:23:05;4.10;99.90
20231;DHT22;10274;49.022;9.338;2023-02-04T06:25:33;4.00;99.90
20231;DHT22;10274;49.022;9.338;2023-02-04T06:28:00;4.00;99.90
20231;DHT22;10274;49.022;9.338;2023-02-04T06:30:26;4.10;99.90
20231;DHT22;10274;49.022;9.338;2023-02-04T06:32:53;4.20;99.90
20231;DHT22;10274;49.022;9.338;2023-02-04T06:35:20;4.30;99.90
20231;DHT22;10274;49.022;9.338;2023-02-04T06:37:47;4.10;99.90
20231;DHT22;10274;49.022;9.338;2023-02-04T06:40:13;3.80;99.90
20231;DHT22;10274;49.022;9.338;2023-02-04T06:42:41;3.70;99.90
20231;DHT22;10274;49.022;9.338;2023-02-04T06:45:08;3.70;99.90
20231;DHT22;10274;49.022;9.338;2023-02-04T06:47:35;3.90;99.90
20231;DHT22;10274;49.022;9.338;2023-02-04T06:50:02;3.90;99.90
20231;DHT22;10274;49.022;9.338;2023-02-04T06:52:28;3.80;99.90
20231;DHT22;10274;49.022;9.338;2023-02-04T06:54:55;3.70;99.90
20231;DHT22;10274;49.022;9.338;2023-02-04T06:57:22;3.80;99.90
20231;DHT22;10274;49.022;9.338;2023-02-04T06:59:50;3.90;99.90
20231;DHT22;10274;49.022;9.338;2023-02-04T07:02:16;3.70;99.90
20231;DHT22;10274;49.022;9.338;2023-02-04T07:04:43;3.60;99.90
20231;DHT22;10274;49.022;9.338;2023-02-04T07:07:10;3.70;99.90
20231;DHT22;10274;49.022;9.338;2023-02-04T07:09:37;3.80;99.90
20231;DHT22;10274;49.022;9.338;2023-02-04T07:12:05;3.80;99.90
20231;DHT22;10274;49.022;9.338;2023-02-04T07:14:31;4.00;99.90
20231;DHT22;10274;49.022;9.338;2023-02-04T07:16:59;3.90;99.90
20231;DHT22;10274;49.022;9.338;2023-02-04T07:19:26;3.80;99.90
20231;DHT22;10274;49.022;9.338;2023-02-04T07:21:53;3.90;99.90
20231;DHT22;10274;49.022;9.338;2023-02-04T07:24:21;3.80;99.90
20231;DHT22;10274;49.022;9.338;2023-02-04T07:26:48;3.90;99.90
20231;DHT22;10274;49.022;9.338;2023-02-04T07:29:15;4.00;99.90
20231;DHT22;10274;49.022;9.338;2023-02-04T07:31:41;4.20;99.90
20231;DHT22;10274;49.022;9.338;2023-02-04T07:34:11;4.20;99.90
20231;DHT22;10274;49.022;9.338;2023-02-04T07:36:37;4.30;99.90
20231;DHT22;10274;49.022;9.338;2023-02-04T07:39:04;4.30;99.90
20231;DHT22;10274;49.022;9.338;2023-02-04T07:41:31;4.30;99.90
20231;DHT22;10274;49.022;9.338;2023-02-04T07:43:58;4.10;99.90
20231;DHT22;10274;49.022;9.338;2023-02-04T07:46:24;4.00;99.90
20231;DHT22;10274;49.022;9.338;2023-02-04T07:48:51;4.00;99.90
20231;DHT22;10274;49.022;9.338;2023-02-04T07:51:19;4.10;99.90
20231;DHT22;10274;49.022;9.338;2023-02-04T07:53:46;4.20;99.90
20231;DHT22;10274;49.022;9.338;2023-02-04T07:56:12;4.30;99.90
20231;DHT22;10274;49.022;9.338;2023-02-04T07:58:39;4.40;99.90
20231;DHT22;10274;49.022;9.338;2023-02-04T08:01:06;4.50;99.90
20231;DHT22;10274;49.022;9.338;2023-02-04T08:03:32;4.50;99.90
20231;DHT22;10274;49.022;9.338;2023-02-04T08:05:59;4.60;99.90
20231;DHT22;10274;49.022;9.338;2023-02-04T08:08:27;4.60;99.90
20231;DHT22;10274;49.022;9.338;2023-02-04T08:10:54;4.60;99.90
20231;DHT22;10274;49.022;9.338;2023-02-04T08:13:20;4.50;99.90
20231;DHT22;10274;49.022;9.338;2023-02-04T08:15:47;4.50;99.90
20231;DHT22;10274;49.022;9.338;2023-02-04T08:18:14;4.50;99.90
20231;DHT22;10274;49.022;9.338;2023-02-04T08:20:40;4.60;99.90
20231;DHT22;10274;49.022;9.338;2023-02-04T08:23:07;4.50;99.90
20231;DHT22;10274;49.022;9.338;2023-02-04T08:25:35;4.40;99.90
20231;DHT22;10274;49.022;9.338;2023-02-04T08:28:02;4.30;99.90
20231;DHT22;10274;49.022;9.338;2023-02-04T08:30:29;4.40;99.90
20231;DHT22;10274;49.022;9.338;2023-02-04T08:32:56;4.40;99.90
20231;DHT22;10274;49.022;9.338;2023-02-04T08:35:22;4.50;99.90
20231;DHT22;10274;49.022;9.338;2023-02-04T08:37:49;4.50;99.90
20231;DHT22;10274;49.022;9.338;2023-02-04T08:40:17;4.60;99.90
20231;DHT22;10274;49.022;9.338;2023-02-04T08:42:45;4.60;99.90
20231;DHT22;10274;49.022;9.338;2023-02-04T08:45:12;4.70;99.90
20231;DHT22;10274;49.022;9.338;2023-02-04T08:47:38;4.70;99.90
20231;DHT22;10274;49.022;9.338;2023-02-04T08:50:06;4.70;99.90
20231;DHT22;10274;49.022;9.338;2023-02-04T08:52:32;4.80;99.90
20231;DHT22;10274;49.022;9.338;2023-02-04T08:55:01;4.90;99.90
20231;DHT22;10274;49.022;9.338;2023-02-04T08:57:27;5.00;99.90
20231;DHT22;10274;49.022;9.338;2023-02-04T08:59:55;5.00;99.90
20231;DHT22;10274;49.022;9.338;2023-02-04T09:02:22;5.00;99.90
20231;DHT22;10274;49.022;9.338;2023-02-04T09:04:49;5.20;99.90
20231;DHT22;10274;49.022;9.338;2023-02-04T09:07:16;5.40;99.90
20231;DHT22;10274;49.022;9.338;2023-02-04T09:09:42;5.50;99.90
20231;DHT22;10274;49.022;9.338;2023-02-04T09:12:09;5.70;99.90
20231;DHT22;10274;49.022;9.338;2023-02-04T09:14:35;5.80;99.90
20231;DHT22;10274;49.022;9.338;2023-02-04T09:17:03;5.80;99.90
20231;DHT22;10274;49.022;9.338;2023-02-04T09:19:30;5.70;99.90
20231;DHT22;10274;49.022;9.338;2023-02-04T09:21:57;5.80;99.90
20231;DHT22;10274;49.022;9.338;2023-02-04T09:24:23;5.70;99.90
20231;DHT22;10274;49.022;9.338;2023-02-04T09:26:50;5.70;99.90
20231;DHT22;10274;49.022;9.338;2023-02-04T09:29:17;5.70;99.90
20231;DHT22;10274;49.022;9.338;2023-02-04T09:31:43;5.70;99.90
20231;DHT22;10274;49.022;9.338;2023-02-04T09:34:11;5.70;99.90
20231;DHT22;10274;49.022;9.338;2023-02-04T09:36:38;5.80;99.90
20231;DHT22;10274;49.022;9.338;2023-02-04T09:39:05;5.90;99.90
20231;DHT22;10274;49.022;9.338;2023-02-04T09:41:34;6.00;99.90
20231;DHT22;10274;49.022;9.338;2023-02-04T09:44:03;5.90;99.90
20231;DHT22;10274;49.022;9.338;2023-02-04T09:46:31;5.90;99.90
20231;DHT22;10274;49.022;9.338;2023-02-04T09:48:58;5.90;99.90
20231;DHT22;10274;49.022;9.338;2023-02-04T09:51:28;6.00;99.90
20231;DHT22;10274;49.022;9.338;2023-02-04T09:54:01;6.00;99.90
20231;DHT22;10274;49.022;9.338;2023-02-04T09:56:30;6.00;99.90
20231;DHT22;10274;49.022;9.338;2023-02-04T09:58:56;6.10;99.90
20231;DHT22;10274;49.022;9.338;2023-02-04T10:01:25;6.10;99.90
20231;DHT22;10274;49.022;9.338;2023-02-04T10:03:54;6.20;99.90
20231;DHT22;10274;49.022;9.338;2023-02-04T10:06:22;6.20;99.90
20231;DHT22;10274;49.022;9.338;2023-02-04T10:08:51;6.40;99.90
20231;DHT22;10274;49.022;9.338;2023-02-04T10:11:20;6.60;99.90
20231;DHT22;10274;49.022;9.338;2023-02-04T10:13:49;6.80;99.90
20231;DHT22;10274;49.022;9.338;2023-02-04T10:16:20;7.10;50.60
20231;DHT22;10274;49.022;9.338;2023-02-04T10:18:47;7.30;23.40
20231;DHT22;10274;49.022;9.338;2023-02-04T10:21:16;7.50;7.80
20231;DHT22;10274;49.022;9.338;2023-02-04T10:23:45;7.80;1.70
20231;DHT22;10274;49.022;9.338;2023-02-04T10:26:14;8.10;1.00
20231;DHT22;10274;49.022;9.338;2023-02-04T10:28:42;9.00;1.00
20231;DHT22;10274;49.022;9.338;2023-02-04T10:31:31;9.70;1.00
20231;DHT22;10274;49.022;9.338;2023-02-04T10:34:06;11.30;1.00
20231;DHT22;10274;49.022;9.338;2023-02-04T10:36:35;12.20;99.90
20231;DHT22;10274;49.022;9.338;2023-02-04T10:39:02;11.70;1.00
20231;DHT22;10274;49.022;9.338;2023-02-04T10:41:31;12.10;99.90
20231;DHT22;10274;49.022;9.338;2023-02-04T10:44:06;14.60;99.90
20231;DHT22;10274;49.022;9.338;2023-02-04T10:46:33;15.20;99.90
20231;DHT22;10274;49.022;9.338;2023-02-04T10:48:59;13.70;99.90
20231;DHT22;10274;49.022;9.338;2023-02-04T10:51:29;14.00;99.90
20231;DHT22;10274;49.022;9.338;2023-02-04T10:53:55;13.80;99.90
20231;DHT22;10274;49.022;9.338;2023-02-04T10:56:41;12.50;1.00
20231;DHT22;10274;49.022;9.338;2023-02-04T10:59:23;11.20;1.00
20231;DHT22;10274;49.022;9.338;2023-02-04T11:01:51;13.00;31.50
20231;DHT22;10274;49.022;9.338;2023-02-04T11:04:18;15.60;1.00
20231;DHT22;10274;49.022;9.338;2023-02-04T11:06:44;16.40;1.00
20231;DHT22;10274;49.022;9.338;2023-02-04T11:09:12;17.50;1.00
20231;DHT22;10274;49.022;9.338;2023-02-04T11:11:45;17.00;1.00
20231;DHT22;10274;49.022;9.338;2023-02-04T11:14:25;15.50;1.00
20231;DHT22;10274;49.022;9.338;2023-02-04T11:16:54;14.50;1.00
20231;DHT22;10274;49.022;9.338;2023-02-04T11:19:36;13.70;1.00
20231;DHT22;10274;49.022;9.338;2023-02-04T11:22:20;12.70;1.00
20231;DHT22;10274;49.022;9.338;2023-02-04T11:24:48;12.00;1.00
20231;DHT22;10274;49.022;9.338;2023-02-04T11:27:22;11.30;1.00
20231;DHT22;10274;49.022;9.338;2023-02-04T11:29:51;11.10;1.00
20231;DHT22;10274;49.022;9.338;2023-02-04T11:32:30;10.50;1.00
20231;DHT22;10274;49.022;9.338;2023-02-04T11:35:24;10.50;99.90
20231;DHT22;10274;49.022;9.338;2023-02-04T11:37:51;10.20;1.00
20231;DHT22;10274;49.022;9.338;2023-02-04T11:40:36;10.50;1.00
20231;DHT22;10274;49.022;9.338;2023-02-04T11:43:11;10.20;1.00
20231;DHT22;10274;49.022;9.338;2023-02-04T11:45:39;10.20;94.60
20231;DHT22;10274;49.022;9.338;2023-02-04T11:48:12;10.40;1.00
20231;DHT22;10274;49.022;9.338;2023-02-04T11:50:39;11.20;1.00
20231;DHT22;10274;49.022;9.338;2023-02-04T11:53:09;11.70;1.00
20231;DHT22;10274;49.022;9.338;2023-02-04T11:55:42;11.90;99.90
20231;DHT22;10274;49.022;9.338;2023-02-04T11:58:13;12.00;99.90
20231;DHT22;10274;49.022;9.338;2023-02-04T12:00:40;11.80;9.70
20231;DHT22;10274;49.022;9.338;2023-02-04T12:03:20;11.30;99.90
20231;DHT22;10274;49.022;9.338;2023-02-04T12:05:47;10.90;99.90
20231;DHT22;10274;49.022;9.338;2023-02-04T12:08:24;11.20;99.90
20231;DHT22;10274;49.022;9.338;2023-02-04T12:11:03;12.50;28.80
20231;DHT22;10274;49.022;9.338;2023-02-04T12:13:33;12.60;51.10
20231;DHT22;10274;49.022;9.338;2023-02-04T12:16:01;12.30;1.00
20231;DHT22;10274;49.022;9.338;2023-02-04T12:18:28;12.00;1.00
20231;DHT22;10274;49.022;9.338;2023-02-04T12:20:55;11.50;1.00
20231;DHT22;10274;49.022;9.338;2023-02-04T12:23:22;11.40;1.00
20231;DHT22;10274;49.022;9.338;2023-02-04T12:25:49;11.20;1.00
20231;DHT22;10274;49.022;9.338;2023-02-04T12:28:16;10.90;55.70
20231;DHT22;10274;49.022;9.338;2023-02-04T12:30:44;11.10;1.00
20231;DHT22;10274;49.022;9.338;2023-02-04T12:33:11;11.10;1.00
20231;DHT22;10274;49.022;9.338;2023-02-04T12:35:37;11.20;1.00
20231;DHT22;10274;49.022;9.338;2023-02-04T12:38:04;10.90;99.90
20231;DHT22;10274;49.022;9.338;2023-02-04T12:40:31;10.90;99.90
20231;DHT22;10274;49.022;9.338;2023-02-04T12:42:58;11.20;99.90
20231;DHT22;10274;49.022;9.338;2023-02-04T12:45:25;11.10;99.90
20231;DHT22;10274;49.022;9.338;2023-02-04T12:47:53;11.00;99.90
20231;DHT22;10274;49.022;9.338;2023-02-04T12:50:19;10.70;99.90
20231;DHT22;10274;49.022;9.338;2023-02-04T12:52:49;10.80;99.90
20231;DHT22;10274;49.022;9.338;2023-02-04T12:55:16;11.10;99.90
20231;DHT22;10274;49.022;9.338;2023-02-04T12:57:43;11.00;99.90
20231;DHT22;10274;49.022;9.338;2023-02-04T13:00:11;10.80;99.90
20231;DHT22;10274;49.022;9.338;2023-02-04T13:02:38;10.60;99.90
20231;DHT22;10274;49.022;9.338;2023-02-04T13:05:07;10.40;1.00
20231;DHT22;10274;49.022;9.338;2023-02-04T13:07:34;10.40;1.00
20231;DHT22;10274;49.022;9.338;2023-02-04T13:10:01;10.40;1.00
20231;DHT22;10274;49.022;9.338;2023-02-04T13:12:27;10.50;99.90
20231;DHT22;10274;49.022;9.338;2023-02-04T13:14:54;10.10;99.90
20231;DHT22;10274;49.022;9.338;2023-02-04T13:17:21;9.80;1.00
20231;DHT22;10274;49.022;9.338;2023-02-04T13:19:47;9.90;1.00
20231;DHT22;10274;49.022;9.338;2023-02-04T13:22:15;10.20;1.00
20231;DHT22;10274;49.022;9.338;2023-02-04T13:24:42;10.30;1.00
20231;DHT22;10274;49.022;9.338;2023-02-04T13:27:09;10.10;1.00
20231;DHT22;10274;49.022;9.338;2023-02-04T13:29:35;9.80;1.00
20231;DHT22;10274;49.022;9.338;2023-02-04T13:32:02;9.80;1.00
20231;DHT22;10274;49.022;9.338;2023-02-04T13:34:29;9.90;1.00
20231;DHT22;10274;49.022;9.338;2023-02-04T13:36:55;9.50;1.00
20231;DHT22;10274;49.022;9.338;2023-02-04T13:39:23;9.60;1.00
20231;DHT22;10274;49.022;9.338;2023-02-04T13:41:50;9.60;1.00
20231;DHT22;10274;49.022;9.338;2023-02-04T13:44:17;9.70;1.00
20231;DHT22;10274;49.022;9.338;2023-02-04T13:46:43;9.50;1.00
20231;DHT22;10274;49.022;9.338;2023-02-04T13:49:10;9.40;1.00
20231;DHT22;10274;49.022;9.338;2023-02-04T13:51:37;9.50;1.00
20231;DHT22;10274;49.022;9.338;2023-02-04T13:54:03;10.00;1.00
20231;DHT22;10274;49.022;9.338;2023-02-04T13:56:31;10.50;1.00
20231;DHT22;10274;49.022;9.338;2023-02-04T13:58:58;12.70;97.80
20231;DHT22;10274;49.022;9.338;2023-02-04T14:01:25;13.30;1.00
20231;DHT22;10274;49.022;9.338;2023-02-04T14:03:52;14.10;1.00
20231;DHT22;10274;49.022;9.338;2023-02-04T14:06:19;14.10;1.00
20231;DHT22;10274;49.022;9.338;2023-02-04T14:08:46;14.20;1.00
20231;DHT22;10274;49.022;9.338;2023-02-04T14:11:13;14.80;1.00
20231;DHT22;10274;49.022;9.338;2023-02-04T14:13:41;14.20;1.00
20231;DHT22;10274;49.022;9.338;2023-02-04T14:16:08;13.40;1.00
20231;DHT22;10274;49.022;9.338;2023-02-04T14:18:34;15.20;99.90
20231;DHT22;10274;49.022;9.338;2023-02-04T14:21:01;15.20;99.90
20231;DHT22;10274;49.022;9.338;2023-02-04T14:23:28;14.00;99.90
20231;DHT22;10274;49.022;9.338;2023-02-04T14:25:54;15.80;99.90
20231;DHT22;10274;49.022;9.338;2023-02-04T14:28:21;16.40;99.90
20231;DHT22;10274;49.022;9.338;2023-02-04T14:30:49;16.90;99.90
20231;DHT22;10274;49.022;9.338;2023-02-04T14:33:15;16.00;99.90
20231;DHT22;10274;49.022;9.338;2023-02-04T14:35:44;15.00;99.90
20231;DHT22;10274;49.022;9.338;2023-02-04T14:38:10;14.10;99.90
20231;DHT22;10274;49.022;9.338;2023-02-04T14:40:40;14.20;99.90
20231;DHT22;10274;49.022;9.338;2023-02-04T14:43:07;15.80;99.90
20231;DHT22;10274;49.022;9.338;2023-02-04T14:45:35;16.70;99.90
20231;DHT22;10274;49.022;9.338;2023-02-04T14:48:03;16.20;99.90
20231;DHT22;10274;49.022;9.338;2023-02-04T14:50:30;14.60;99.90
20231;DHT22;10274;49.022;9.338;2023-02-04T14:52:57;13.20;99.90
20231;DHT22;10274;49.022;9.338;2023-02-04T14:55:24;13.10;99.90
20231;DHT22;10274;49.022;9.338;2023-02-04T14:57:50;14.20;99.90
20231;DHT22;10274;49.022;9.338;2023-02-04T15:00:18;14.20;99.90
20231;DHT22;10274;49.022;9.338;2023-02-04T15:02:45;13.80;99.90
20231;DHT22;10274;49.022;9.338;2023-02-04T15:05:13;13.20;99.90
20231;DHT22;10274;49.022;9.338;2023-02-04T15:07:40;12.80;99.90
20231;DHT22;10274;49.022;9.338;2023-02-04T15:10:09;12.00;99.90
20231;DHT22;10274;49.022;9.338;2023-02-04T15:12:35;11.00;99.90
20231;DHT22;10274;49.022;9.338;2023-02-04T15:15:03;10.30;1.00
20231;DHT22;10274;49.022;9.338;2023-02-04T15:17:29;9.70;1.00
20231;DHT22;10274;49.022;9.338;2023-02-04T15:19:56;9.40;60.10
20231;DHT22;10274;49.022;9.338;2023-02-04T15:22:24;9.10;99.90
20231;DHT22;10274;49.022;9.338;2023-02-04T15:24:51;8.90;99.90
20231;DHT22;10274;49.022;9.338;2023-02-04T15:27:18;8.70;99.90
20231;DHT22;10274;49.022;9.338;2023-02-04T15:29:44;9.00;1.00
20231;DHT22;10274;49.022;9.338;2023-02-04T15:32:11;9.10;1.00
20231;DHT22;10274;49.022;9.338;2023-02-04T15:34:37;8.90;1.00
20231;DHT22;10274;49.022;9.338;2023-02-04T15:37:05;9.20;1.00
20231;DHT22;10274;49.022;9.338;2023-02-04T15:39:33;8.70;1.00
20231;DHT22;10274;49.022;9.338;2023-02-04T15:41:59;8.30;30.50
20231;DHT22;10274;49.022;9.338;2023-02-04T15:44:26;8.20;1.00
20231;DHT22;10274;49.022;9.338;2023-02-04T15:46:53;8.00;99.90
20231;DHT22;10274;49.022;9.338;2023-02-04T15:49:19;7.90;99.90